Time;durP1;ratioP1;P1;durP2;ratioP2;P2;SDS_P1;SDS_P2;PMS_P1;PMS_P2;Temp;Humidity;BMP_temperature;BMP_pressure;BME280_temperature;BME280_humidity;BME280_pressure;Samples;Min_cycle;Max_cycle;Signal;HPM_P1;HPM_P2
2021/10/06 00:01:59;;;;;;;9.43;5.80;;;19.40;46.30;;;;;;5100335;23;20016;-50
2021/10/06 00:04:02;;;;;;;8.25;5.78;;;19.50;46.30;;;;;;5104170;23;20112;-49
2021/10/06 00:06:04;;;;;;;9.02;5.95;;;19.50;46.40;;;;;;5102956;23;20668;-44
2021/10/06 00:08:08;;;;;;;8.85;5.93;;;19.50;46.50;;;;;;5104367;23;20027;-51
2021/10/06 00:10:12;;;;;;;8.18;5.70;;;;;;;;;;5092012;23;20016;-52
2021/10/06 00:12:13;;;;;;;;;;;;;;;;;;5104600;23;20115;-51
2021/10/06 00:14:15;;;;;;;7.63;5.40;;;;;;;;;;5101661;23;20719;-46
2021/10/06 00:16:18;;;;;;;9.40;5.90;;;;;;;;;;5104521;23;20104;-50
2021/10/06 00:18:22;;;;;;;9.98;5.65;;;;;;;;;;5104630;23;20017;-50
2021/10/06 00:20:24;;;;;;;9.02;6.03;;;;;;;;;;5099153;23;20199;-49
2021/10/06 00:22:26;;;;;;;10.65;5.70;;;;;;;;;;5080070;23;20021;-48
2021/10/06 00:24:29;;;;;;;9.60;6.57;;;;;;;;;;5076314;23;20013;-53
2021/10/06 00:26:31;;;;;;;8.10;5.78;;;;;;;;;;5079907;23;20031;-49
2021/10/06 00:28:33;;;;;;;7.88;5.53;;;;;;;;;;5068995;23;20120;-52
2021/10/06 00:30:35;;;;;;;8.93;5.75;;;;;;;;;;5080336;23;20116;-50
2021/10/06 00:32:37;;;;;;;8.20;5.72;;;;;;;;;;5077993;23;20013;-48
2021/10/06 00:34:39;;;;;;;8.85;6.05;;;;;;;;;;5041596;23;20744;-50
2021/10/06 00:36:42;;;;;;;8.40;5.82;;;;;;;;;;5081644;23;20091;-47
2021/10/06 00:38:44;;;;;;;8.63;5.65;;;;;;;;;;5077262;23;20017;-46
2021/10/06 00:40:45;;;;;;;8.73;5.60;;;;;;;;;;5077319;23;20017;-47
2021/10/06 00:42:48;;;;;;;8.73;6.07;;;;;;;;;;5071437;23;20032;-52
2021/10/06 00:44:50;;;;;;;9.50;6.25;;;;;;;;;;5071497;23;20028;-46
2021/10/06 00:46:52;;;;;;;9.98;6.25;;;;;;;;;;5076927;23;20009;-46
2021/10/06 00:48:54;;;;;;;8.43;5.68;;;;;;;;;;5078808;23;20036;-45
2021/10/06 00:50:56;;;;;;;8.00;5.75;;;;;;;;;;5069270;23;20068;-44
2021/10/06 00:52:58;;;;;;;9.85;5.63;;;;;;;;;;5078953;23;20023;-48
2021/10/06 00:55:00;;;;;;;7.38;5.32;;;;;;;;;;5077491;23;20072;-48
2021/10/06 00:57:02;;;;;;;10.07;6.10;;;;;;;;;;5070007;23;20130;-45
2021/10/06 00:59:04;;;;;;;10.63;6.47;;;;;;;;;;5079373;23;20043;-52
2021/10/06 01:01:06;;;;;;;9.50;6.40;;;;;;;;;;5076449;23;20105;-49
2021/10/06 01:03:08;;;;;;;11.85;6.55;;;;;;;;;;5073402;23;20017;-51
2021/10/06 01:05:11;;;;;;;8.30;6.07;;;;;;;;;;5077851;23;20025;-51
2021/10/06 01:07:13;;;;;;;7.93;5.35;;;;;;;;;;5078067;23;20067;-46
2021/10/06 01:09:15;;;;;;;9.93;5.78;;;;;;;;;;5075093;23;20116;-50
2021/10/06 01:11:18;;;;;;;8.90;5.80;;;;;;;;;;5077463;23;20017;-54
2021/10/06 01:13:20;;;;;;;8.75;6.03;;;;;;;;;;5076974;23;20044;-52
2021/10/06 01:15:22;;;;;;;10.02;6.20;;;;;;;;;;5074501;23;20044;-50
2021/10/06 01:17:24;;;;;;;9.88;6.07;;;;;;;;;;5076493;23;20024;-49
2021/10/06 01:19:28;;;;;;;7.55;5.40;;;;;;;;;;5070990;23;20023;-47
2021/10/06 01:21:30;;;;;;;7.28;5.28;;;;;;;;;;5087173;23;20078;-53
2021/10/06 01:23:32;;;;;;;10.05;6.13;;;;;;;;;;5098671;23;20031;-48
2021/10/06 01:25:34;;;;;;;8.23;5.93;;;;;;;;;;5103328;23;20453;-51
2021/10/06 01:27:37;;;;;;;8.68;5.72;;;;;;;;;;5103932;23;20013;-49
2021/10/06 01:29:39;;;;;;;10.60;5.78;;;;;;;;;;5100333;23;20051;-51
2021/10/06 01:31:42;;;;;;;8.68;5.78;;;;;;;;;;5099147;23;20013;-47
2021/10/06 01:33:45;;;;;;;8.43;6.60;;;;;;;;;;5097508;23;20017;-49
2021/10/06 01:35:47;;;;;;;10.33;6.40;;;;;;;;;;5099833;23;20100;-50
2021/10/06 01:37:49;;;;;;;9.75;6.10;;;;;;;;;;5062209;23;20029;-52
2021/10/06 01:39:51;;;;;;;8.77;5.57;;;;;;;;;;5097658;23;20097;-50
2021/10/06 01:41:53;;;;;;;7.38;5.72;;;;;;;;;;5101036;23;20020;-45
2021/10/06 01:43:55;;;;;;;8.75;6.10;;;;;;;;;;5099423;23;20023;-46
2021/10/06 01:45:57;;;;;;;7.50;5.60;;;;;;;;;;5102314;23;20063;-49
2021/10/06 01:48:06;;;;;;;7.65;5.53;;;;;;;;;;5100734;23;20079;-49
2021/10/06 01:50:08;;;;;;;9.10;6.32;;;;;;;;;;5097126;23;20016;-46
2021/10/06 01:52:10;;;;;;;8.82;5.90;;;;;;;;;;5102747;23;20111;-47
2021/10/06 01:54:13;;;;;;;9.65;6.00;;;;;;;;;;5098768;23;20016;-46
2021/10/06 01:56:15;;;;;;;9.00;5.38;;;;;;;;;;5102417;23;20015;-49
2021/10/06 01:58:18;;;;;;;10.63;6.20;;;;;;;;;;5099818;23;20016;-50
2021/10/06 02:00:20;;;;;;;9.20;6.10;;;;;;;;;;5102862;23;20079;-49
2021/10/06 02:02:22;;;;;;;9.32;5.88;;;;;;;;;;5102532;23;20437;-49
2021/10/06 02:04:24;;;;;;;8.02;5.88;;;;;;;;;;5103470;23;20020;-52
2021/10/06 02:06:26;;;;;;;7.93;5.43;;;;;;;;;;5103874;23;20017;-46
2021/10/06 02:08:28;;;;;;;7.75;5.88;;;;;;;;;;5103282;23;20024;-48
2021/10/06 02:10:30;;;;;;;8.40;5.65;;;;;;;;;;5102828;23;20028;-53
2021/10/06 02:12:33;;;;;;;11.00;6.10;;;;;;;;;;5095954;23;20023;-51
2021/10/06 02:14:34;;;;;;;8.98;6.13;;;;;;;;;;5103102;23;20012;-50
2021/10/06 02:16:37;;;;;;;8.55;5.88;;;;;;;;;;5095450;23;20098;-47
2021/10/06 02:18:39;;;;;;;9.73;5.90;;;;;;;;;;5101065;23;20837;-48
2021/10/06 02:20:41;;;;;;;11.68;6.20;;;;;;;;;;5101438;23;20044;-52
2021/10/06 02:22:43;;;;;;;11.25;6.00;;;;;;;;;;5103533;23;20020;-51
2021/10/06 02:24:45;;;;;;;10.52;5.88;;;;;;;;;;5102373;23;20024;-46
2021/10/06 02:26:47;;;;;;;9.23;5.72;;;;;;;;;;5102709;23;20042;-48
2021/10/06 02:28:49;;;;;;;9.98;5.63;;;;;;;;;;5106092;23;20013;-49
2021/10/06 02:30:51;;;;;;;8.43;5.40;;;;;;;;;;5103985;23;20012;-50
2021/10/06 02:32:53;;;;;;;8.48;5.38;;;;;;;;;;5101800;23;20459;-55
2021/10/06 02:34:55;;;;;;;9.70;5.45;;;;;;;;;;5104148;23;20028;-54
2021/10/06 02:36:57;;;;;;;9.18;5.95;;;;;;;;;;5104486;23;20008;-54
2021/10/06 02:39:02;;;;;;;10.25;5.63;;;;;;;;;;5095916;23;20024;-56
2021/10/06 02:41:04;;;;;;;8.23;5.40;;;;;;;;;;5104990;23;20074;-55
2021/10/06 02:43:06;;;;;;;8.27;5.13;;;;;;;;;;5103371;23;20047;-52
2021/10/06 02:45:09;;;;;;;9.43;5.70;;;;;;;;;;5105189;23;20128;-49
2021/10/06 02:47:11;;;;;;;8.75;5.05;;;;;;;;;;5105115;23;20014;-54
2021/10/06 02:49:13;;;;;;;9.38;5.22;;;;;;;;;;5105905;23;20027;-52
2021/10/06 02:51:15;;;;;;;11.45;5.00;;;;;;;;;;5106471;23;20079;-54
2021/10/06 02:53:17;;;;;;;7.22;4.70;;;;;;;;;;5105467;23;20008;-53
2021/10/06 02:55:20;;;;;;;7.97;4.70;;;;;;;;;;5103756;23;20023;-55
2021/10/06 02:57:22;;;;;;;7.28;4.38;;;;;;;;;;5070412;23;20016;-55
2021/10/06 02:59:24;;;;;;;8.15;4.65;;;;;;;;;;5105879;23;20035;-53
2021/10/06 03:01:26;;;;;;;7.72;4.32;;;;;;;;;;5105620;23;20021;-46
2021/10/06 03:03:28;;;;;;;6.75;4.75;;;;;;;;;;5104988;23;20946;-52
2021/10/06 03:05:30;;;;;;;6.88;4.68;;;;;;;;;;5106000;23;20056;-55
2021/10/06 03:07:32;;;;;;;8.23;5.00;;;;;;;;;;5107696;23;20015;-54
2021/10/06 03:09:34;;;;;;;7.32;4.28;;;;;;;;;;5106690;23;20385;-47
2021/10/06 03:11:36;;;;;;;8.00;4.65;;;;;;;;;;5104712;23;20052;-53
2021/10/06 03:13:38;;;;;;;8.07;4.63;;;;;;;;;;5104753;23;20074;-53
2021/10/06 03:15:40;;;;;;;8.02;4.82;;;;;;;;;;5107341;23;20012;-54
2021/10/06 03:17:42;;;;;;;6.32;4.25;;;;;;;;;;5105366;23;20023;-53
2021/10/06 03:19:45;;;;;;;13.38;4.50;;;;;;;;;;5105332;23;20102;-47
2021/10/06 03:21:47;;;;;;;8.95;5.18;;;;;;;;;;5108215;23;20043;-52
2021/10/06 03:23:49;;;;;;;7.40;4.50;;;;;;;;;;5107267;23;20019;-45
2021/10/06 03:25:51;;;;;;;7.57;4.53;;;;;;;;;;5106840;23;20086;-55
2021/10/06 03:27:53;;;;;;;7.70;4.03;;;;;;;;;;5109276;23;20012;-54
2021/10/06 03:29:55;;;;;;;6.78;4.05;;;;;;;;;;5108738;23;20020;-48
2021/10/06 03:31:58;;;;;;;7.30;4.18;;;;;;;;;;5108594;23;20016;-50
2021/10/06 03:34:00;;;;;;;7.57;4.38;;;;;;;;;;5101163;23;20847;-47
2021/10/06 03:36:03;;;;;;;7.50;4.00;;;;;;;;;;5111989;23;20697;-48
2021/10/06 03:38:05;;;;;;;6.13;3.72;;;;;;;;;;5109402;23;20292;-49
2021/10/06 03:40:08;;;;;;;6.38;3.72;;;;;;;;;;5110397;23;20016;-48
2021/10/06 03:42:10;;;;;;;6.53;3.73;;;;;;;;;;5097584;23;20031;-47
2021/10/06 03:44:12;;;;;;;6.13;3.47;;;;;;;;;;5102477;23;20019;-48
2021/10/06 03:46:14;;;;;;;5.72;3.70;;;;;;;;;;5104664;23;20083;-49
2021/10/06 03:48:17;;;;;;;5.38;3.58;;;19.50;46.50;;;;;;5101877;23;20024;-49
2021/10/06 03:50:19;;;;;;;5.72;3.70;;;22.00;45.80;;;;;;5095828;23;20120;-46
2021/10/06 03:52:22;;;;;;;6.03;3.88;;;22.00;45.50;;;;;;5107891;23;20015;-48
2021/10/06 03:54:24;;;;;;;8.13;3.90;;;22.10;45.40;;;;;;5106554;23;20017;-50
2021/10/06 03:56:26;;;;;;;6.17;4.07;;;22.10;45.40;;;;;;5099011;23;20258;-46
2021/10/06 03:58:28;;;;;;;6.35;3.70;;;22.20;45.40;;;;;;5108831;23;20047;-45
2021/10/06 04:00:31;;;;;;;5.88;4.00;;;22.30;45.60;;;;;;5107312;23;20103;-48
2021/10/06 04:02:33;;;;;;;8.13;3.75;;;22.30;45.10;;;;;;5106053;23;20016;-48
2021/10/06 04:04:36;;;;;;;7.20;3.05;;;22.40;45.10;;;;;;5103498;23;20016;-56
2021/10/06 04:06:38;;;;;;;5.90;3.22;;;22.50;45.10;;;;;;5102248;23;20083;-51
2021/10/06 04:08:40;;;;;;;8.50;3.60;;;22.50;45.10;;;;;;5092725;23;20024;-50
2021/10/06 04:10:42;;;;;;;5.83;3.17;;;22.60;45.20;;;;;;5105986;23;20588;-53
2021/10/06 04:12:45;;;;;;;5.75;3.40;;;22.70;45.30;;;;;;5103994;23;20419;-51
2021/10/06 04:14:47;;;;;;;8.55;3.63;;;22.70;45.10;;;;;;5101834;23;20016;-48
2021/10/06 04:16:50;;;;;;;7.55;3.15;;;22.80;45.10;;;;;;5102963;23;20695;-50
2021/10/06 04:18:52;;;;;;;7.47;3.70;;;22.90;45.10;;;;;;5103275;23;20020;-53
2021/10/06 04:20:54;;;;;;;6.28;3.30;;;22.90;44.90;;;;;;5100875;23;20119;-47
2021/10/06 04:22:56;;;;;;;7.28;3.40;;;23.00;44.90;;;;;;5102580;23;20160;-51
2021/10/06 04:24:58;;;;;;;6.25;3.22;;;23.00;44.70;;;;;;5100553;23;20670;-49
2021/10/06 04:27:01;;;;;;;9.45;3.42;;;23.10;44.70;;;;;;5105092;23;20016;-44
2021/10/06 04:29:03;;;;;;;5.78;3.50;;;23.20;44.70;;;;;;5099211;23;20875;-48
2021/10/06 04:31:06;;;;;;;7.88;3.35;;;23.30;44.60;;;;;;5094535;23;20022;-48
2021/10/06 04:33:08;;;;;;;7.15;3.38;;;23.30;44.50;;;;;;5101986;23;20028;-48
2021/10/06 04:35:10;;;;;;;4.45;2.80;;;23.40;44.40;;;;;;5104783;23;20023;-46
2021/10/06 04:37:13;;;;;;;7.03;3.50;;;23.50;44.30;;;;;;5105121;23;20021;-49
2021/10/06 04:39:15;;;;;;;7.33;3.30;;;23.50;44.10;;;;;;5100939;23;20099;-50
2021/10/06 04:41:17;;;;;;;4.95;3.00;;;23.60;44.20;;;;;;5103976;23;20093;-48
2021/10/06 04:43:19;;;;;;;5.95;2.65;;;23.70;44.00;;;;;;5102789;23;21248;-50
2021/10/06 04:45:22;;;;;;;5.57;2.80;;;23.80;44.00;;;;;;5105179;23;20106;-50
2021/10/06 04:47:24;;;;;;;6.05;2.60;;;23.80;43.70;;;;;;5102459;23;20066;-52
2021/10/06 04:49:26;;;;;;;5.93;2.35;;;23.90;43.60;;;;;;5102311;23;20032;-47
2021/10/06 04:51:29;;;;;;;4.67;2.40;;;24.00;43.50;;;;;;5104350;23;20020;-53
2021/10/06 04:53:32;;;;;;;5.25;2.78;;;24.10;43.50;;;;;;5101969;23;20027;-49
2021/10/06 04:55:34;;;;;;;5.18;2.78;;;24.20;43.50;;;;;;5103244;23;20391;-49
2021/10/06 04:57:36;;;;;;;5.55;2.53;;;24.20;43.30;;;;;;5093959;23;20055;-44
2021/10/06 04:59:38;;;;;;;7.15;2.47;;;24.30;42.90;;;;;;5107341;23;20012;-48
2021/10/06 05:01:40;;;;;;;4.65;2.25;;;24.40;43.30;;;;;;5092356;23;20016;-47
2021/10/06 05:03:42;;;;;;;5.53;2.38;;;24.40;42.70;;;;;;5106653;23;20028;-47
2021/10/06 05:05:45;;;;;;;4.70;2.40;;;24.50;42.70;;;;;;5103778;23;20121;-48
2021/10/06 05:07:47;;;;;;;4.10;2.40;;;24.60;42.60;;;;;;5096237;23;20086;-54
2021/10/06 05:09:49;;;;;;;4.30;2.55;;;24.60;42.70;;;;;;5100758;23;20254;-47
2021/10/06 05:11:51;;;;;;;5.80;2.25;;;24.60;42.80;;;;;;5103229;23;20021;-43
2021/10/06 05:13:53;;;;;;;4.72;2.65;;;24.60;42.70;;;;;;5105004;23;20103;-52
2021/10/06 05:15:56;;;;;;;4.55;2.70;;;24.60;42.90;;;;;;5104901;23;20015;-50
2021/10/06 05:17:58;;;;;;;3.77;2.20;;;24.60;43.00;;;;;;5102318;23;20027;-49
2021/10/06 05:20:00;;;;;;;3.83;2.10;;;24.60;43.20;;;;;;5102809;23;20028;-47
2021/10/06 05:22:03;;;;;;;4.85;2.28;;;24.60;43.00;;;;;;5104928;23;20396;-46
2021/10/06 05:24:05;;;;;;;3.97;2.40;;;24.60;43.20;;;;;;5104160;23;20166;-53
2021/10/06 05:26:08;;;;;;;5.38;2.20;;;24.70;43.40;;;;;;5106018;23;20031;-53
2021/10/06 05:28:10;;;;;;;5.32;2.20;;;24.70;43.40;;;;;;5101337;23;20012;-49
2021/10/06 05:30:13;;;;;;;4.15;2.22;;;24.70;43.20;;;;;;5104332;23;20028;-54
2021/10/06 05:32:15;;;;;;;4.18;2.28;;;24.80;43.30;;;;;;5098531;23;20016;-50
2021/10/06 05:34:18;;;;;;;4.40;2.23;;;24.80;43.30;;;;;;5103447;23;20024;-50
2021/10/06 05:36:20;;;;;;;5.32;1.83;;;24.90;43.30;;;;;;5107007;23;21291;-50
2021/10/06 05:38:22;;;;;;;3.33;1.75;;;24.90;43.60;;;;;;5103017;23;20012;-44
2021/10/06 05:40:24;;;;;;;4.50;2.45;;;24.90;43.60;;;;;;5093342;23;20021;-52
2021/10/06 05:42:26;;;;;;;3.63;2.10;;;25.00;43.30;;;;;;5092166;23;20013;-49
2021/10/06 05:44:29;;;;;;;3.38;1.95;;;25.00;43.60;;;;;;5103721;23;20028;-46
2021/10/06 05:46:31;;;;;;;3.47;1.75;;;25.10;43.80;;;;;;5104913;23;20190;-45
2021/10/06 05:48:33;;;;;;;3.15;1.90;;;25.10;43.70;;;;;;5096554;23;20189;-50
2021/10/06 05:50:36;;;;;;;4.50;1.98;;;25.20;43.90;;;;;;5104163;23;20024;-52
2021/10/06 05:52:38;;;;;;;3.42;1.95;;;25.20;43.50;;;;;;5103088;23;20016;-53
2021/10/06 05:54:40;;;;;;;4.78;1.88;;;25.30;43.80;;;;;;5105145;23;20032;-50
2021/10/06 05:56:42;;;;;;;3.10;1.80;;;25.30;43.30;;;;;;5078532;23;20019;-51
2021/10/06 05:58:44;;;;;;;3.97;1.83;;;25.40;43.60;;;;;;5105071;23;20066;-47
2021/10/06 06:00:47;;;;;;;3.67;2.17;;;25.40;43.50;;;;;;5100886;23;20023;-52
2021/10/06 06:02:49;;;;;;;3.42;1.77;;;25.40;43.50;;;;;;5106386;23;20027;-48
2021/10/06 06:04:51;;;;;;;4.57;1.90;;;25.50;43.70;;;;;;5105019;23;20125;-46
2021/10/06 06:06:53;;;;;;;3.05;1.90;;;25.50;43.10;;;;;;5103491;23;20103;-49
2021/10/06 06:08:56;;;;;;;6.28;1.95;;;25.60;43.10;;;;;;5100778;23;20009;-48
2021/10/06 06:10:58;;;;;;;3.95;1.90;;;25.60;42.60;;;;;;5096995;23;20079;-50
2021/10/06 06:13:00;;;;;;;2.60;1.70;;;25.70;42.30;;;;;;5105922;23;20028;-45
2021/10/06 06:15:04;;;;;;;3.53;1.88;;;25.70;42.00;;;;;;5100671;23;20274;-49
2021/10/06 06:17:07;;;;;;;3.65;1.80;;;25.70;41.70;;;;;;5104573;23;20040;-46
2021/10/06 06:19:09;;;;;;;3.00;1.92;;;25.70;41.60;;;;;;5100397;23;20121;-49
2021/10/06 06:21:12;;;;;;;4.05;1.90;;;25.80;41.60;;;;;;5105729;23;20031;-50
2021/10/06 06:23:14;;;;;;;3.00;1.58;;;25.80;41.40;;;;;;5104207;23;20789;-47
2021/10/06 06:25:17;;;;;;;3.40;1.60;;;25.80;41.20;;;;;;5104714;23;20024;-52
2021/10/06 06:27:19;;;;;;;3.63;1.92;;;25.90;41.30;;;;;;5101240;23;20023;-53
2021/10/06 06:29:22;;;;;;;4.63;1.77;;;25.90;41.30;;;;;;5102542;23;20020;-53
2021/10/06 06:31:24;;;;;;;5.55;2.00;;;25.90;41.00;;;;;;5101965;23;20030;-45
2021/10/06 06:33:26;;;;;;;4.90;1.50;;;25.90;40.80;;;;;;5091005;23;20016;-52
2021/10/06 06:35:29;;;;;;;6.33;1.80;;;25.90;40.60;;;;;;5089656;23;20017;-51
2021/10/06 06:37:31;;;;;;;6.15;1.58;;;25.90;40.70;;;;;;5096307;23;20095;-55
2021/10/06 06:39:33;;;;;;;6.60;1.87;;;25.90;41.00;;;;;;5080016;23;20016;-56
2021/10/06 06:41:35;;;;;;;4.68;1.70;;;25.90;40.60;;;;;;5097344;23;20077;-52
2021/10/06 06:43:38;;;;;;;4.17;1.60;;;25.90;40.40;;;;;;5099412;23;20190;-54
2021/10/06 06:45:40;;;;;;;3.85;1.67;;;25.90;40.10;;;;;;5099034;23;20032;-54
2021/10/06 06:47:42;;;;;;;6.05;1.75;;;25.90;39.70;;;;;;5095914;23;20171;-53
2021/10/06 06:49:44;;;;;;;4.72;1.77;;;25.90;39.50;;;;;;5093149;23;20028;-54
2021/10/06 06:51:47;;;;;;;5.05;1.80;;;25.80;39.20;;;;;;5083434;23;20015;-53
2021/10/06 06:53:49;;;;;;;3.73;1.60;;;25.80;39.10;;;;;;5089610;23;20027;-58
2021/10/06 06:55:51;;;;;;;4.13;1.70;;;25.80;39.10;;;;;;5095551;23;20071;-56
2021/10/06 06:57:53;;;;;;;3.50;1.77;;;25.70;39.00;;;;;;5091593;23;20043;-52
2021/10/06 07:05:28;;;;;;;3.20;1.65;;;25.60;38.90;;;;;;5048162;23;20518;-69
2021/10/06 07:07:31;;;;;;;2.80;1.50;;;25.60;39.00;;;;;;5100112;23;20079;-71
2021/10/06 07:09:35;;;;;;;4.53;1.67;;;25.60;39.00;;;;;;5114913;23;20023;-68
2021/10/06 07:11:38;;;;;;;3.67;1.50;;;25.60;39.10;;;;;;5114876;23;20024;-70
2021/10/06 07:13:41;;;;;;;3.35;1.42;;;25.50;39.00;;;;;;5114063;23;20012;-70
2021/10/06 07:15:43;;;;;;;2.80;1.58;;;25.50;39.10;;;;;;5099390;23;20016;-70
2021/10/06 07:17:45;;;;;;;3.30;1.50;;;25.40;39.00;;;;;;5113638;23;20019;-72
2021/10/06 07:19:48;;;;;;;2.80;1.40;;;25.40;39.00;;;;;;5109522;23;20016;-67
2021/10/06 07:21:51;;;;;;;4.43;1.50;;;25.40;39.20;;;;;;5111208;23;20017;-69
2021/10/06 07:23:55;;;;;;;3.13;1.45;;;25.30;39.10;;;;;;5111364;23;20548;-69
2021/10/06 07:25:57;;;;;;;2.35;1.38;;;25.30;39.10;;;;;;5111853;23;20020;-69
2021/10/06 07:27:59;;;;;;;1.77;1.35;;;25.30;39.20;;;;;;5102549;23;20806;-69
2021/10/06 07:30:02;;;;;;;2.83;1.60;;;25.20;39.10;;;;;;5113803;23;20016;-70
2021/10/06 07:32:05;;;;;;;3.17;1.58;;;25.20;39.10;;;;;;5112404;23;20363;-70
2021/10/06 07:34:07;;;;;;;3.58;1.50;;;25.10;39.10;;;;;;5114192;23;20012;-69
2021/10/06 07:36:09;;;;;;;2.45;1.42;;;25.10;39.20;;;;;;5112452;23;20015;-68
2021/10/06 07:38:12;;;;;;;2.70;1.13;;;25.10;39.80;;;;;;5113184;23;20453;-70
2021/10/06 07:40:14;;;;;;;4.13;1.52;;;25.10;39.20;;;;;;5128364;23;20122;-69
2021/10/06 07:42:16;;;;;;;5.57;1.70;;;25.10;39.20;;;;;;5110474;23;20031;-70
2021/10/06 07:44:19;;;;;;;2.92;1.42;;;25.00;39.20;;;;;;5113634;23;20119;-69
2021/10/06 07:46:21;;;;;;;3.38;1.67;;;25.00;39.20;;;;;;5113900;23;20031;-69
2021/10/06 07:48:23;;;;;;;2.72;1.30;;;24.90;39.30;;;;;;5111935;23;20008;-67
2021/10/06 07:50:26;;;;;;;3.30;1.60;;;24.90;39.40;;;;;;5109763;23;20075;-69
2021/10/06 07:52:29;;;;;;;5.25;1.40;;;24.90;39.30;;;;;;5110315;23;20305;-68
2021/10/06 07:54:31;;;;;;;4.20;1.50;;;24.90;39.50;;;;;;5108634;23;20041;-67
2021/10/06 07:56:33;;;;;;;3.33;1.60;;;24.90;39.50;;;;;;5110834;23;20084;-69
2021/10/06 07:58:36;;;;;;;3.28;1.85;;;24.80;39.40;;;;;;5110888;23;20025;-71
2021/10/06 08:00:38;;;;;;;3.75;1.60;;;24.80;39.50;;;;;;5111875;23;20040;-71
2021/10/06 08:02:40;;;;;;;3.22;1.42;;;24.80;39.50;;;;;;5109286;23;20645;-71
2021/10/06 08:04:42;;;;;;;3.22;1.52;;;24.80;39.50;;;;;;5099828;23;20028;-70
2021/10/06 08:06:45;;;;;;;3.37;1.43;;;24.70;39.80;;;;;;5106946;23;20056;-70
2021/10/06 08:08:47;;;;;;;3.00;1.77;;;24.70;39.80;;;;;;5108758;23;20017;-70
2021/10/06 08:10:49;;;;;;;3.63;1.58;;;24.70;39.80;;;;;;5109199;23;20023;-70
2021/10/06 08:12:52;;;;;;;5.03;1.95;;;24.60;39.90;;;;;;5073433;23;20052;-71
2021/10/06 08:14:54;;;;;;;3.38;1.83;;;24.60;39.80;;;;;;5071252;23;20419;-70
2021/10/06 08:16:56;;;;;;;2.97;1.80;;;24.60;39.80;;;;;;5107774;23;20199;-70
2021/10/06 08:18:58;;;;;;;4.07;1.92;;;24.60;40.40;;;;;;5106047;23;20250;-68
2021/10/06 08:21:01;;;;;;;4.30;1.92;;;24.60;41.00;;;;;;5107739;23;20016;-69
2021/10/06 08:23:06;;;;;;;5.10;1.92;;;24.60;41.30;;;;;;5106996;23;20026;-69
2021/10/06 08:25:09;;;;;;;2.65;1.60;;;24.60;41.30;;;;;;5105631;23;20610;-69
2021/10/06 08:27:13;;;;;;;4.88;2.00;;;24.60;41.80;;;;;;5106049;23;20020;-69
2021/10/06 08:29:15;;;;;;;1.80;1.45;;;24.60;42.20;;;;;;5106852;23;20111;-69
2021/10/06 08:31:19;;;;;;;2.92;1.70;;;24.70;42.50;;;;;;5106043;23;20016;-68
2021/10/06 08:33:22;;;;;;;4.38;1.80;;;24.60;42.70;;;;;;5105525;23;20032;-68
2021/10/06 08:35:24;;;;;;;5.50;1.73;;;24.60;42.90;;;;;;5108012;23;20110;-68
2021/10/06 08:37:26;;;;;;;3.78;1.60;;;24.60;42.90;;;;;;5105588;23;20020;-70
2021/10/06 08:39:29;;;;;;;6.45;2.08;;;24.70;43.10;;;;;;5105507;23;20012;-70
2021/10/06 08:41:31;;;;;;;6.30;1.60;;;24.70;43.10;;;;;;5107166;23;20899;-69
2021/10/06 08:43:36;;;;;;;3.00;1.60;;;24.70;43.10;;;;;;5106804;23;20859;-68
2021/10/06 08:45:39;;;;;;;3.78;1.55;;;24.70;43.20;;;;;;5106032;23;20432;-70
2021/10/06 08:47:42;;;;;;;3.25;1.55;;;24.70;43.50;;;;;;5108454;23;20536;-70
2021/10/06 08:49:45;;;;;;;3.15;1.65;;;24.70;43.30;;;;;;5106195;23;20872;-69
2021/10/06 08:51:47;;;;;;;2.57;1.60;;;24.60;43.30;;;;;;5105262;23;20706;-70
2021/10/06 08:53:50;;;;;;;4.37;1.70;;;24.70;43.40;;;;;;5104179;23;20358;-70
2021/10/06 08:55:52;;;;;;;5.13;1.60;;;24.70;43.60;;;;;;5104683;23;20760;-70
2021/10/06 08:58:00;;;;;;;3.28;1.75;;;24.60;43.50;;;;;;5109229;23;20091;-70
2021/10/06 09:00:03;;;;;;;3.05;1.42;;;24.70;43.70;;;;;;5105442;23;20611;-70
2021/10/06 09:02:12;;;;;;;;;;;24.60;43.60;;;;;;5108013;23;20038;-70
2021/10/06 09:04:14;;;;;;;3.35;1.90;;;24.60;43.60;;;;;;5107766;23;20751;-69
2021/10/06 09:06:16;;;;;;;2.38;1.30;;;24.60;43.60;;;;;;5106672;23;20947;-68
2021/10/06 09:08:19;;;;;;;2.85;1.58;;;24.60;43.50;;;;;;5107035;23;20860;-69
2021/10/06 09:10:22;;;;;;;4.72;1.80;;;24.60;43.60;;;;;;5107064;23;20017;-71
2021/10/06 09:12:25;;;;;;;3.70;1.60;;;24.60;43.60;;;;;;5073596;23;20515;-69
2021/10/06 09:14:28;;;;;;;;;;;24.60;43.70;;;;;;5109775;23;20761;-70
2021/10/06 09:16:31;;;;;;;4.72;2.10;;;24.60;43.80;;;;;;5103165;23;19916;-69
2021/10/06 09:18:34;;;;;;;3.33;1.52;;;24.60;43.70;;;;;;5073929;23;20021;-71
2021/10/06 09:20:38;;;;;;;2.45;1.42;;;24.60;43.80;;;;;;5108797;23;20342;-69
2021/10/06 09:22:45;;;;;;;2.83;1.38;;;24.60;43.70;;;;;;5110340;23;20021;-69
2021/10/06 09:24:55;;;;;;;4.43;1.38;;;24.60;43.80;;;;;;5100757;23;20034;-68
2021/10/06 09:27:05;;;;;;;4.68;1.58;;;24.60;43.90;;;;;;5100679;23;20432;-70
2021/10/06 09:29:23;;;;;;;2.05;1.30;;;24.60;44.50;;;;;;5110804;23;20017;-69
2021/10/06 09:31:28;;;;;;;2.97;1.60;;;24.60;43.80;;;;;;5076419;23;20385;-69
2021/10/06 09:33:44;;;;;;;3.35;1.50;;;24.60;43.90;;;;;;5072127;23;20021;-68
2021/10/06 09:35:50;;;;;;;4.57;1.67;;;24.60;43.80;;;;;;5109817;23;20059;-69
2021/10/06 09:37:54;;;;;;;5.50;1.60;;;24.60;43.90;;;;;;5074579;23;20956;-69
2021/10/06 09:39:57;;;;;;;5.93;1.50;;;24.60;43.90;;;;;;5107745;23;20140;-72
2021/10/06 09:41:59;;;;;;;3.22;1.58;;;24.50;44.00;;;;;;5110930;23;20025;-69
2021/10/06 09:44:10;;;;;;;4.53;1.80;;;24.50;44.00;;;;;;5110386;23;20862;-69
2021/10/06 09:46:12;;;;;;;1.92;1.30;;;24.50;42.90;;;;;;5110877;23;20028;-69
2021/10/06 09:48:16;;;;;;;2.87;1.73;;;24.50;42.30;;;;;;5112113;23;21118;-69
2021/10/06 09:50:23;;;;;;;3.60;1.77;;;24.50;41.90;;;;;;5112220;23;20096;-69
2021/10/06 09:52:31;;;;;;;3.28;1.55;;;24.40;41.70;;;;;;5110361;23;20091;-69
2021/10/06 09:54:35;;;;;;;2.15;1.52;;;24.40;41.70;;;;;;5109288;23;20459;-70
2021/10/06 09:56:47;;;;;;;5.43;1.80;;;24.40;41.80;;;;;;5110999;23;20016;-70
2021/10/06 09:59:01;;;;;;;2.42;1.50;;;24.30;42.50;;;;;;5110906;23;20515;-70
2021/10/06 10:01:03;;;;;;;3.92;1.90;;;24.30;42.90;;;;;;5110094;23;21029;-71
2021/10/06 10:03:07;;;;;;;4.15;1.60;;;24.30;43.30;;;;;;5110338;23;20013;-71
2021/10/06 10:05:10;;;;;;;3.25;1.50;;;24.30;43.40;;;;;;5109652;23;20978;-69
2021/10/06 10:07:12;;;;;;;;;;;24.30;43.60;;;;;;5110572;23;20347;-70
2021/10/06 10:09:14;;;;;;;5.30;1.60;;;24.30;43.50;;;;;;5109944;23;19976;-69
2021/10/06 10:11:18;;;;;;;3.80;1.48;;;24.30;43.70;;;;;;5109743;23;20030;-72
2021/10/06 10:13:24;;;;;;;5.85;1.70;;;24.30;44.50;;;;;;5110364;23;20353;-71
2021/10/06 10:15:26;;;;;;;5.35;1.52;;;24.30;44.30;;;;;;5111442;23;20020;-71
2021/10/06 10:17:29;;;;;;;4.00;1.40;;;24.30;44.50;;;;;;5110217;23;20024;-68
2021/10/06 10:19:32;;;;;;;5.72;1.80;;;24.30;44.50;;;;;;5101547;23;20154;-69
2021/10/06 10:21:36;;;;;;;2.80;1.38;;;24.30;44.80;;;;;;5104925;23;20023;-68
2021/10/06 10:23:38;;;;;;;3.35;1.60;;;24.30;44.80;;;;;;5109016;23;20683;-68
2021/10/06 10:25:43;;;;;;;3.88;1.75;;;24.30;45.00;;;;;;5109058;23;20056;-69
2021/10/06 10:28:00;;;;;;;2.50;1.20;;;24.30;45.00;;;;;;5110624;23;20008;-69
2021/10/06 10:30:05;;;;;;;2.78;1.75;;;24.30;45.00;;;;;;5111387;23;20016;-68
2021/10/06 10:32:14;;;;;;;3.35;1.38;;;24.30;44.90;;;;;;5106188;23;20013;-69
2021/10/06 10:34:36;;;;;;;1.58;1.20;;;24.30;45.00;;;;;;5110968;23;20103;-68
2021/10/06 10:36:41;;;;;;;5.10;1.80;;;24.30;45.00;;;;;;5111674;23;20032;-69
2021/10/06 10:38:43;;;;;;;3.20;1.58;;;24.30;45.00;;;;;;5108947;23;20117;-69
2021/10/06 10:40:47;;;;;;;3.23;1.60;;;24.30;44.90;;;;;;5100070;23;20017;-68
2021/10/06 10:43:14;;;;;;;3.80;1.65;;;24.30;45.00;;;;;;5110213;23;20016;-68
2021/10/06 10:45:37;;;;;;;3.63;1.50;;;24.30;45.00;;;;;;5097555;23;20029;-69
2021/10/06 10:47:59;;;;;;;;;;;24.30;45.00;;;;;;5111687;23;20012;-69
2021/10/06 10:50:01;;;;;;;2.53;1.70;;;24.30;44.90;;;;;;5104665;23;20376;-70
2021/10/06 10:52:05;;;;;;;2.20;1.50;;;24.30;45.00;;;;;;5103969;23;20020;-69
2021/10/06 10:54:10;;;;;;;2.38;1.70;;;24.30;45.00;;;;;;5103580;23;20100;-68
2021/10/06 10:56:12;;;;;;;2.78;1.63;;;24.30;45.10;;;;;;5102311;23;20031;-68
2021/10/06 10:58:33;;;;;;;1.55;1.27;;;24.30;45.00;;;;;;5070737;23;20028;-68
2021/10/06 11:00:35;;;;;;;3.33;1.50;;;24.30;45.00;;;;;;5103117;23;20017;-71
2021/10/06 11:02:39;;;;;;;3.85;1.67;;;24.30;45.10;;;;;;5104669;23;20054;-70
2021/10/06 11:04:43;;;;;;;;;;;24.30;45.10;;;;;;5108113;23;20065;-68
2021/10/06 11:06:57;;;;;;;14.13;2.33;;;24.30;45.00;;;;;;5102994;23;20009;-70
2021/10/06 11:08:59;;;;;;;5.78;1.80;;;24.30;44.80;;;;;;5108514;23;20012;-70
2021/10/06 11:11:13;;;;;;;6.78;1.60;;;24.30;44.70;;;;;;5108116;23;20076;-69
2021/10/06 11:13:37;;;;;;;3.08;1.67;;;24.20;44.70;;;;;;5110547;23;21249;-68
2021/10/06 11:15:47;;;;;;;6.28;1.77;;;24.20;44.60;;;;;;5103439;23;20012;-69
2021/10/06 11:18:13;;;;;;;6.80;1.88;;;24.20;44.60;;;;;;5112221;23;20047;-68